createdAt,value
2022-08-29T00:05:13.164Z,16.7
2022-08-29T00:10:53.494Z,16.6
2022-08-29T00:16:41.776Z,16.6
2022-08-29T00:22:04.168Z,16.5
2022-08-29T00:27:47.603Z,16.6
2022-08-29T00:33:11.444Z,16.6
2022-08-29T00:38:53.131Z,16.6
2022-08-29T00:44:18.261Z,16.5
2022-08-29T00:49:40.350Z,16.4
2022-08-29T00:54:45.529Z,16.4
2022-08-29T01:00:05.319Z,16.3
2022-08-29T01:05:52.530Z,16.2
2022-08-29T01:11:44.202Z,16.1
2022-08-29T01:17:20.801Z,15.9
2022-08-29T01:22:42.079Z,15.9
2022-08-29T01:28:03.381Z,15.8
2022-08-29T01:34:15.925Z,15.7
2022-08-29T01:39:52.926Z,15.6
2022-08-29T01:45:33.298Z,15.6
2022-08-29T01:51:13.349Z,15.6
2022-08-29T01:56:49.774Z,15.5
2022-08-29T02:02:34.365Z,15.4
2022-08-29T02:07:55.080Z,15.4
2022-08-29T02:13:32.068Z,15.3
2022-08-29T02:18:53.148Z,15.3
2022-08-29T02:24:58.167Z,15.1
2022-08-29T02:30:34.753Z,15.1
2022-08-29T02:35:53.764Z,15.1
2022-08-29T02:41:31.685Z,15
2022-08-29T02:46:53.368Z,15
2022-08-29T02:52:48.839Z,15
2022-08-29T02:57:57.651Z,14.9
2022-08-29T03:03:34.786Z,14.9
2022-08-29T03:09:02.453Z,14.9
2022-08-29T03:14:25.045Z,14.8
2022-08-29T03:20:02.968Z,14.8
2022-08-29T03:25:39.259Z,14.8
2022-08-29T03:31:25.601Z,14.7
2022-08-29T03:36:36.628Z,14.7
2022-08-29T03:41:58.398Z,14.7
2022-08-29T03:47:37.459Z,14.7
2022-08-29T03:53:15.726Z,14.8
2022-08-29T03:58:53.629Z,14.9
2022-08-29T04:04:30.912Z,14.9
2022-08-29T04:10:11.967Z,14.9
2022-08-29T04:15:49.862Z,14.9
2022-08-29T04:21:36.580Z,15
2022-08-29T04:27:43.246Z,15.1
2022-08-29T04:33:30.262Z,15.3
2022-08-29T04:39:07.413Z,15.3
2022-08-29T04:44:44.582Z,15.5
2022-08-29T04:50:29.615Z,15.8
2022-08-29T04:56:06.953Z,16
2022-08-29T05:01:39.192Z,16.4
2022-08-29T05:07:06.565Z,16.9
2022-08-29T05:12:52.772Z,17.7
2022-08-29T05:18:30.973Z,18.9
2022-08-29T05:24:17.838Z,20.2
2022-08-29T05:29:55.187Z,21.5
2022-08-29T05:36:03.626Z,23.1
2022-08-29T05:41:27.658Z,25.4
2022-08-29T05:47:15.938Z,28.3
2022-08-29T05:52:54.063Z,30.3
2022-08-29T05:58:32.356Z,31.4
2022-08-29T06:04:15.291Z,32.6
2022-08-29T06:09:52.411Z,33.8
2022-08-29T06:15:33.220Z,34.9
2022-08-29T06:21:18.432Z,36.7
2022-08-29T06:27:23.042Z,40.1
2022-08-29T06:33:13.111Z,44.1
2022-08-29T06:38:50.895Z,47.3
2022-08-29T06:44:30.569Z,50.1
2022-08-29T06:50:13.754Z,55.8
2022-08-29T06:56:29.095Z,46.9
2022-08-29T07:02:23.764Z,47.7
2022-08-29T07:08:09.868Z,52.8
2022-08-29T07:14:08.218Z,49
2022-08-29T07:20:01.667Z,46.8
2022-08-29T07:25:43.358Z,47.2
2022-08-29T07:31:27.322Z,48.1
2022-08-29T07:37:31.393Z,48.1
2022-08-29T07:43:19.317Z,49.6
2022-08-29T07:49:05.833Z,54.3
2022-08-29T07:54:53.649Z,48.4
2022-08-29T08:00:35.373Z,51.8
2022-08-29T08:06:07.150Z,53.6
2022-08-29T08:12:06.276Z,52.3
2022-08-29T08:17:46.020Z,52.4
2022-08-29T08:23:34.581Z,54.8
2022-08-29T08:29:13.482Z,54.4
2022-08-29T08:40:33.247Z,52.5
2022-08-29T08:46:20.084Z,53.6
2022-08-29T08:51:46.796Z,52.5
2022-08-29T08:57:07.869Z,52.4
2022-08-29T09:02:46.002Z,48.4
2022-08-29T09:08:25.536Z,46.7
2022-08-29T09:13:51.341Z,44.8
2022-08-29T09:19:51.453Z,43.3
2022-08-29T09:26:02.259Z,42.1
2022-08-29T09:31:41.413Z,41.7
2022-08-29T09:37:49.227Z,41.7
2022-08-29T09:43:32.125Z,41.8
2022-08-29T09:49:12.231Z,42
2022-08-29T09:54:59.740Z,42.6
2022-08-29T10:00:44.749Z,43.8
2022-08-29T10:06:31.306Z,44.6
2022-08-29T10:12:00.845Z,45.1
2022-08-29T10:18:13.740Z,44.9
2022-08-29T10:23:54.070Z,45.3
2022-08-29T10:29:31.798Z,55.3
2022-08-29T10:35:00.506Z,60.4
2022-08-29T10:40:35.081Z,56.4
2022-08-29T10:46:17.777Z,57.8
2022-08-29T10:52:14.343Z,58.4
2022-08-29T10:57:52.017Z,58.1
2022-08-29T11:03:35.294Z,56.6
2022-08-29T11:09:15.040Z,49.8
2022-08-29T11:14:54.761Z,48.8
2022-08-29T11:20:37.533Z,48
2022-08-29T11:26:23.119Z,45.9
2022-08-29T11:32:03.764Z,44.3
2022-08-29T11:37:40.530Z,43.7
2022-08-29T11:44:41.217Z,44.4
2022-08-29T11:50:33.604Z,46
2022-08-29T11:56:11.967Z,48.4
2022-08-29T12:01:56.283Z,53.6
2022-08-29T12:07:55.366Z,54.8
2022-08-29T12:14:03.600Z,50
2022-08-29T12:19:52.707Z,46.5
2022-08-29T12:25:36.811Z,44.8
2022-08-29T12:32:33.313Z,43.6
2022-08-29T12:38:21.924Z,42.7
2022-08-29T12:44:07.863Z,42
2022-08-29T12:49:31.126Z,41.4
2022-08-29T12:54:56.256Z,40.7
2022-08-29T13:00:24.477Z,40.1
2022-08-29T13:06:07.404Z,39.4
2022-08-29T13:11:52.569Z,38.5
2022-08-29T13:17:35.223Z,37.8
2022-08-29T13:23:43.722Z,36.9
2022-08-29T13:29:15.763Z,36.4
2022-08-29T13:35:04.438Z,35.3
2022-08-29T13:40:52.922Z,34.3
2022-08-29T13:46:32.703Z,33.6
2022-08-29T13:52:10.671Z,32.8
2022-08-29T13:57:52.011Z,31.6
2022-08-29T14:04:54.959Z,30.2
2022-08-29T14:10:32.757Z,29
2022-08-29T14:16:21.287Z,27.9
2022-08-29T14:22:06.332Z,26.8
2022-08-29T14:27:36.025Z,25.9
2022-08-29T14:33:31.619Z,25.3
2022-08-29T14:39:31.587Z,24.9
2022-08-29T14:45:16.343Z,24.5
2022-08-29T14:50:54.112Z,24.1
2022-08-29T14:57:18.268Z,23.6
2022-08-29T15:02:56.373Z,23.1
2022-08-29T15:08:32.489Z,22.7
2022-08-29T15:14:09.873Z,22.4
2022-08-29T15:21:21.150Z,22.1
2022-08-29T15:27:04.260Z,22
2022-08-29T15:32:49.117Z,21.9
2022-08-29T15:38:28.026Z,21.9
2022-08-29T15:44:18.735Z,22
2022-08-29T15:50:05.501Z,21.9
2022-08-29T15:55:44.483Z,21.9
2022-08-29T16:02:01.375Z,21.9
2022-08-29T16:07:39.795Z,21.9
2022-08-29T16:13:37.264Z,21.7
